createdAt,value
2022-09-07T00:00:56.464Z,8.90
2022-09-07T00:03:24.952Z,9.47
2022-09-07T00:05:53.840Z,8.67
2022-09-07T00:08:25.165Z,8.37
2022-09-07T00:10:56.252Z,8.70
2022-09-07T00:13:25.560Z,8.87
2022-09-07T00:15:53.624Z,9.00
2022-09-07T00:18:22.038Z,8.10
2022-09-07T00:20:59.303Z,8.90
2022-09-07T00:23:28.329Z,9.00
2022-09-07T00:26:00.706Z,9.27
2022-09-07T00:28:28.810Z,9.00
2022-09-07T00:30:56.781Z,8.80
2022-09-07T00:33:24.910Z,8.87
2022-09-07T00:35:52.809Z,9.10
2022-09-07T00:38:20.816Z,9.40
2022-09-07T00:40:48.749Z,9.60
2022-09-07T00:43:34.742Z,9.07
2022-09-07T00:46:03.669Z,9.27
2022-09-07T00:48:35.793Z,9.00
2022-09-07T00:51:08.468Z,8.60
2022-09-07T00:53:41.584Z,8.30
2022-09-07T00:56:10.868Z,9.20
2022-09-07T00:58:43.075Z,9.20
2022-09-07T01:01:11.337Z,8.73
2022-09-07T01:03:43.194Z,9.17
2022-09-07T01:06:16.670Z,9.17
2022-09-07T01:08:46.115Z,8.30
2022-09-07T01:11:14.513Z,9.10
2022-09-07T01:13:46.184Z,9.43
2022-09-07T01:16:25.018Z,8.43
2022-09-07T01:19:01.744Z,9.10
2022-09-07T01:21:40.570Z,8.60
2022-09-07T01:24:32.711Z,9.23
2022-09-07T01:27:23.689Z,8.73
2022-09-07T01:30:00.252Z,8.50
2022-09-07T01:32:40.106Z,8.90
2022-09-07T01:35:23.137Z,9.20
2022-09-07T01:37:57.985Z,8.30
2022-09-07T01:40:35.539Z,9.00
2022-09-07T01:43:08.133Z,9.13
2022-09-07T01:45:42.272Z,7.53
2022-09-07T01:48:15.840Z,8.40
2022-09-07T01:50:47.839Z,9.23
2022-09-07T01:53:20.056Z,9.20
2022-09-07T01:55:51.362Z,8.40
2022-09-07T01:58:22.846Z,9.30
2022-09-07T02:00:56.417Z,9.40
2022-09-07T02:03:31.840Z,8.10
2022-09-07T02:06:04.758Z,9.20
2022-09-07T02:08:37.465Z,8.53
2022-09-07T02:11:11.631Z,8.90
2022-09-07T02:13:43.259Z,8.70
2022-09-07T02:16:17.467Z,8.83
2022-09-07T02:18:48.595Z,8.10
2022-09-07T02:21:20.550Z,8.40
2022-09-07T02:23:52.151Z,7.83
2022-09-07T02:26:23.521Z,8.33
2022-09-07T02:28:52.251Z,10.00
2022-09-07T02:31:21.798Z,7.93
2022-09-07T02:33:49.845Z,7.80
2022-09-07T02:36:21.088Z,9.27
2022-09-07T02:38:49.085Z,8.90
2022-09-07T02:41:32.566Z,8.23
2022-09-07T02:44:01.702Z,8.10
2022-09-07T02:46:43.166Z,8.30
2022-09-07T02:49:26.346Z,8.30
2022-09-07T02:52:06.873Z,7.87
2022-09-07T02:54:50.137Z,9.67
2022-09-07T02:57:27.396Z,9.10
2022-09-07T03:00:05.661Z,7.57
2022-09-07T03:02:44.276Z,8.30
2022-09-07T03:05:19.878Z,8.60
2022-09-07T03:07:53.903Z,9.53
2022-09-07T03:10:22.397Z,8.27
2022-09-07T03:12:51.388Z,8.50
2022-09-07T03:15:21.662Z,9.50
2022-09-07T03:17:51.033Z,8.57
2022-09-07T03:20:20.046Z,7.60
2022-09-07T03:22:49.680Z,9.03
2022-09-07T03:25:17.985Z,9.00
2022-09-07T03:27:46.281Z,9.60
2022-09-07T03:30:15.318Z,9.10
2022-09-07T03:32:46.040Z,8.60
2022-09-07T03:35:16.784Z,9.10
2022-09-07T03:37:44.856Z,8.80
2022-09-07T03:40:15.083Z,9.70
2022-09-07T03:42:43.757Z,8.90
2022-09-07T03:45:12.306Z,9.57
2022-09-07T03:47:40.667Z,9.37
2022-09-07T03:50:09.380Z,8.90
2022-09-07T03:52:39.213Z,9.73
2022-09-07T03:55:07.747Z,9.17
2022-09-07T03:57:36.134Z,10.50
2022-09-07T04:00:05.309Z,10.00
2022-09-07T04:02:40.425Z,8.27
2022-09-07T04:05:09.273Z,10.13
2022-09-07T04:07:38.559Z,9.03
2022-09-07T04:10:07.120Z,9.40
2022-09-07T04:12:35.010Z,9.37
2022-09-07T04:15:02.925Z,8.47
2022-09-07T04:17:31.249Z,9.67
2022-09-07T04:19:59.162Z,9.30
2022-09-07T04:22:27.041Z,10.20
2022-09-07T04:24:56.356Z,8.93
2022-09-07T04:27:24.252Z,14.07
2022-09-07T04:29:52.124Z,34.40
2022-09-07T04:32:20.014Z,40.67
2022-09-07T04:34:48.793Z,11.70
2022-09-07T04:37:16.707Z,10.13
2022-09-07T04:39:44.608Z,9.77
2022-09-07T04:42:13.979Z,9.53
2022-09-07T04:44:41.945Z,8.90
2022-09-07T04:47:09.879Z,9.00
2022-09-07T04:49:38.652Z,9.03
2022-09-07T04:52:06.580Z,9.37
2022-09-07T04:54:34.517Z,10.07
2022-09-07T04:57:02.413Z,9.03
2022-09-07T04:59:31.750Z,8.77
2022-09-07T05:02:00.409Z,10.13
2022-09-07T05:04:28.357Z,9.53
2022-09-07T05:06:56.268Z,10.00
2022-09-07T05:09:24.167Z,10.53
2022-09-07T05:11:52.377Z,9.00
2022-09-07T05:14:20.245Z,9.30
2022-09-07T05:16:49.612Z,8.87
2022-09-07T05:19:18.200Z,7.90
2022-09-07T05:21:46.101Z,8.43
2022-09-07T05:24:14.090Z,9.80
2022-09-07T05:26:42.345Z,9.50
2022-09-07T05:32:00.906Z,9.00
2022-09-07T05:37:01.979Z,9.23
2022-09-07T05:39:30.403Z,9.63
2022-09-07T05:41:58.448Z,9.87
2022-09-07T05:47:11.585Z,8.47
2022-09-07T05:49:39.615Z,8.77
2022-09-07T05:52:07.765Z,9.53
2022-09-07T05:54:35.696Z,9.10
2022-09-07T05:57:03.983Z,9.47
2022-09-07T05:59:31.941Z,9.23
2022-09-07T06:02:00.425Z,9.00
2022-09-07T06:04:29.742Z,10.60
2022-09-07T06:07:21.011Z,9.13
2022-09-07T06:12:33.640Z,10.30
2022-09-07T06:15:02.048Z,9.43
2022-09-07T06:17:30.993Z,9.87
2022-09-07T06:20:00.721Z,10.23
2022-09-07T06:22:30.950Z,12.03
2022-09-07T06:24:59.696Z,11.00
2022-09-07T06:27:27.670Z,9.77
2022-09-07T06:29:55.988Z,9.80
2022-09-07T06:35:13.502Z,10.13
2022-09-07T06:37:41.971Z,10.30
2022-09-07T06:40:11.654Z,9.67
2022-09-07T06:42:39.705Z,9.03
2022-09-07T06:45:11.294Z,9.13
2022-09-07T06:47:39.910Z,9.90
2022-09-07T06:50:09.042Z,10.90
2022-09-07T06:55:28.688Z,9.90
2022-09-07T06:57:56.624Z,10.50
2022-09-07T07:00:24.725Z,10.30
2022-09-07T07:02:52.954Z,9.87
2022-09-07T07:05:21.166Z,9.77
2022-09-07T07:07:50.644Z,11.93
2022-09-07T07:10:23.725Z,9.87
2022-09-07T07:12:56.717Z,10.13
2022-09-07T07:15:26.689Z,9.87
2022-09-07T07:17:59.177Z,10.33
2022-09-07T07:20:33.730Z,10.83
2022-09-07T07:23:03.309Z,11.40
2022-09-07T07:25:31.508Z,10.90
2022-09-07T07:30:47.413Z,12.10
2022-09-07T07:33:15.329Z,11.93
2022-09-07T07:35:43.272Z,11.80
2022-09-07T07:43:48.696Z,10.80
2022-09-07T07:46:17.567Z,11.20
2022-09-07T07:48:48.906Z,10.93
2022-09-07T07:51:16.780Z,10.17
2022-09-07T07:53:46.173Z,10.13
2022-09-07T07:56:14.673Z,10.67
2022-09-07T07:58:46.661Z,19.53
2022-09-07T08:01:16.385Z,12.30
2022-09-07T08:03:45.915Z,10.20
2022-09-07T08:06:15.510Z,10.70
2022-09-07T08:08:44.644Z,9.20
2022-09-07T08:11:16.857Z,12.70
2022-09-07T08:13:46.309Z,12.00
2022-09-07T08:16:15.201Z,11.43
2022-09-07T08:18:46.946Z,9.90
2022-09-07T08:21:16.860Z,10.10
2022-09-07T08:23:44.700Z,10.27
2022-09-07T08:26:14.106Z,14.17
2022-09-07T08:28:45.478Z,11.90
2022-09-07T08:31:15.454Z,11.30
2022-09-07T08:33:43.919Z,11.53
2022-09-07T08:36:13.992Z,10.57
2022-09-07T08:38:42.646Z,10.13
2022-09-07T08:41:50.892Z,9.90
2022-09-07T08:44:23.463Z,9.80
2022-09-07T08:46:55.805Z,10.53
2022-09-07T08:49:31.159Z,9.87
2022-09-07T08:52:02.747Z,11.07
2022-09-07T08:54:30.741Z,10.03
2022-09-07T09:00:02.047Z,9.90
2022-09-07T09:02:33.652Z,9.70
2022-09-07T09:05:21.272Z,8.90
2022-09-07T09:08:04.101Z,9.80
2022-09-07T09:10:40.727Z,9.90
2022-09-07T09:13:18.309Z,8.40
2022-09-07T09:15:56.134Z,9.50
2022-09-07T09:18:44.653Z,9.83
2022-09-07T09:21:16.000Z,9.30
2022-09-07T09:23:45.483Z,9.67
2022-09-07T09:26:16.628Z,9.00
2022-09-07T09:28:45.811Z,9.13
2022-09-07T09:31:19.186Z,8.90
2022-09-07T09:34:09.109Z,9.77
2022-09-07T09:36:43.145Z,10.07
2022-09-07T09:39:29.710Z,10.17
2022-09-07T09:42:00.814Z,8.80
2022-09-07T09:44:34.714Z,8.40
2022-09-07T09:49:53.527Z,8.47
2022-09-07T09:52:29.964Z,9.47
2022-09-07T09:55:23.200Z,9.73
2022-09-07T10:04:01.545Z,8.70
2022-09-07T10:06:32.324Z,9.37
2022-09-07T10:09:02.336Z,9.10
2022-09-07T10:14:36.118Z,9.17
2022-09-07T10:17:14.971Z,8.90
2022-09-07T10:19:44.063Z,13.77
2022-09-07T10:22:24.996Z,12.70
2022-09-07T10:24:53.016Z,8.53
2022-09-07T10:27:22.140Z,17.83
2022-09-07T10:29:49.956Z,10.33
2022-09-07T10:32:28.780Z,17.40
2022-09-07T10:35:07.025Z,9.23
2022-09-07T10:37:52.141Z,8.60
2022-09-07T10:40:29.536Z,8.97
2022-09-07T10:43:22.252Z,8.40
2022-09-07T10:46:03.527Z,8.90
2022-09-07T10:48:39.434Z,8.90
2022-09-07T10:51:14.668Z,8.73
2022-09-07T10:56:54.247Z,8.33
2022-09-07T11:02:31.045Z,9.93
2022-09-07T11:05:09.956Z,8.70
2022-09-07T11:08:02.913Z,9.27
2022-09-07T11:10:43.178Z,10.80
2022-09-07T11:13:22.350Z,8.63
2022-09-07T11:15:54.793Z,9.17
2022-09-07T11:18:28.547Z,8.13
2022-09-07T11:21:00.958Z,8.10
2022-09-07T11:23:37.865Z,8.17
2022-09-07T11:26:18.158Z,7.87
2022-09-07T11:29:29.280Z,8.50
2022-09-07T11:31:41.956Z,9.33
2022-09-07T11:34:24.592Z,9.30
2022-09-07T11:36:58.441Z,9.00
2022-09-07T11:39:31.570Z,8.67
2022-09-07T11:42:42.868Z,11.07
2022-09-07T11:44:56.908Z,9.10
2022-09-07T11:47:31.000Z,8.97
2022-09-07T11:49:59.625Z,8.47
2022-09-07T11:52:35.306Z,7.77
2022-09-07T11:55:07.380Z,8.50
2022-09-07T11:57:53.677Z,8.23
2022-09-07T12:00:30.026Z,9.10
2022-09-07T12:03:39.040Z,8.33
2022-09-07T12:06:28.443Z,8.60
2022-09-07T12:09:14.721Z,9.80
2022-09-07T12:12:12.438Z,8.50
2022-09-07T12:14:56.337Z,8.37
2022-09-07T12:17:36.401Z,9.07
2022-09-07T12:20:15.568Z,8.10
2022-09-07T12:23:02.198Z,8.87
2022-09-07T12:25:33.379Z,8.90
2022-09-07T12:28:02.164Z,8.80
2022-09-07T12:30:55.662Z,9.50
2022-09-07T12:33:32.249Z,8.90
2022-09-07T12:36:01.029Z,8.63
2022-09-07T12:39:24.766Z,7.40
2022-09-07T12:44:43.012Z,8.47
2022-09-07T12:47:30.961Z,8.70
2022-09-07T12:50:29.472Z,8.20
2022-09-07T12:53:21.132Z,7.80
2022-09-07T12:56:17.547Z,8.00
2022-09-07T12:59:06.256Z,7.70
2022-09-07T13:01:47.325Z,8.13
2022-09-07T13:04:31.848Z,7.80
2022-09-07T13:07:38.617Z,8.53
2022-09-07T13:10:31.176Z,9.13
2022-09-07T13:13:04.455Z,9.20
2022-09-07T13:15:44.436Z,7.83
2022-09-07T13:18:28.518Z,8.20
2022-09-07T13:21:33.187Z,8.23
2022-09-07T13:24:47.286Z,8.10
2022-09-07T13:27:30.193Z,10.93
2022-09-07T13:30:03.035Z,8.53
2022-09-07T13:35:23.647Z,8.10
2022-09-07T13:37:56.098Z,7.87
2022-09-07T13:40:27.542Z,7.77
2022-09-07T13:42:57.733Z,7.93
2022-09-07T13:45:33.202Z,8.43
2022-09-07T13:48:14.227Z,7.80
2022-09-07T13:50:48.301Z,7.17
2022-09-07T13:53:35.210Z,7.83
2022-09-07T13:56:16.508Z,7.90
2022-09-07T13:58:47.347Z,7.23
2022-09-07T14:01:20.986Z,8.00
2022-09-07T14:03:52.289Z,7.80
2022-09-07T14:06:32.586Z,7.33
2022-09-07T14:09:04.535Z,7.70
2022-09-07T14:11:41.494Z,7.53
2022-09-07T14:14:23.561Z,8.77
2022-09-07T14:16:57.514Z,8.37
2022-09-07T14:19:28.068Z,7.60
2022-09-07T14:21:57.825Z,10.17
2022-09-07T14:24:34.289Z,8.30
2022-09-07T14:27:02.641Z,7.60
2022-09-07T14:29:32.432Z,8.03
2022-09-07T14:32:02.046Z,7.47
2022-09-07T14:34:34.642Z,11.40
2022-09-07T14:37:06.765Z,20.80
2022-09-07T14:39:40.445Z,15.10
2022-09-07T14:42:11.570Z,8.93
2022-09-07T14:44:42.947Z,8.93
2022-09-07T14:47:24.400Z,8.00
2022-09-07T14:49:53.065Z,7.43
2022-09-07T14:52:24.333Z,8.10
2022-09-07T14:54:54.600Z,7.53
2022-09-07T14:57:31.716Z,6.57
2022-09-07T15:00:19.621Z,6.97
2022-09-07T15:02:47.649Z,7.60
2022-09-07T15:05:25.773Z,7.97
2022-09-07T15:07:56.039Z,7.23
2022-09-07T15:10:32.746Z,7.37
2022-09-07T15:13:01.988Z,7.67
2022-09-07T15:15:32.995Z,7.77
2022-09-07T15:18:08.747Z,7.93
2022-09-07T15:20:43.159Z,7.87
2022-09-07T15:23:13.344Z,8.10
2022-09-07T15:25:48.231Z,9.67
2022-09-07T15:34:02.814Z,8.97
2022-09-07T15:36:32.090Z,7.97
2022-09-07T15:39:00.668Z,9.07
2022-09-07T15:41:30.397Z,8.00
2022-09-07T15:43:58.213Z,9.00
2022-09-07T15:46:26.383Z,9.93
2022-09-07T15:48:56.100Z,8.10
2022-09-07T15:54:14.267Z,10.13
2022-09-07T15:57:48.077Z,10.60
2022-09-07T15:59:32.401Z,10.43
2022-09-07T16:02:00.700Z,8.70
2022-09-07T16:04:28.881Z,10.40
2022-09-07T16:06:56.791Z,8.90
2022-09-07T16:09:24.927Z,9.40
2022-09-07T16:11:54.764Z,10.10
2022-09-07T16:14:22.991Z,10.43
2022-09-07T16:19:41.097Z,10.47
2022-09-07T16:22:09.651Z,9.93
2022-09-07T16:24:37.726Z,9.43
2022-09-07T16:27:07.149Z,9.67
2022-09-07T16:29:34.989Z,10.40
2022-09-07T16:34:51.725Z,10.60
2022-09-07T16:37:19.629Z,12.70
2022-09-07T16:39:47.457Z,11.80
2022-09-07T16:42:16.657Z,12.00
2022-09-07T16:44:44.524Z,12.07
2022-09-07T16:47:12.756Z,10.93
2022-09-07T16:49:40.633Z,13.80
2022-09-07T16:52:10.946Z,17.20
2022-09-07T16:54:38.855Z,18.57
2022-09-07T16:57:06.795Z,14.90
2022-09-07T16:59:35.974Z,16.60
2022-09-07T17:02:03.819Z,18.77
2022-09-07T17:04:31.801Z,37.53
2022-09-07T17:06:59.613Z,23.80
2022-09-07T17:09:28.625Z,13.13
2022-09-07T17:11:56.485Z,11.30
2022-09-07T17:14:24.323Z,10.70
2022-09-07T17:16:53.514Z,10.87
2022-09-07T17:19:30.068Z,19.53
2022-09-07T17:21:59.682Z,52.07
2022-09-07T17:24:27.575Z,22.70
2022-09-07T17:26:55.528Z,12.87
2022-09-07T17:29:23.344Z,12.60
2022-09-07T17:34:40.620Z,13.20
2022-09-07T17:37:09.372Z,14.80
2022-09-07T17:39:38.629Z,15.87
2022-09-07T17:42:07.310Z,14.70
2022-09-07T17:44:38.059Z,14.40
2022-09-07T17:47:08.004Z,12.77
2022-09-07T17:49:35.812Z,13.27
2022-09-07T17:52:03.891Z,15.50
2022-09-07T17:54:31.889Z,16.23
2022-09-07T17:56:59.859Z,14.80
2022-09-07T18:02:16.957Z,42.90
2022-09-07T18:04:44.856Z,25.70
2022-09-07T18:07:13.098Z,17.90
2022-09-07T18:09:40.891Z,16.50
2022-09-07T18:12:09.003Z,13.30
2022-09-07T18:14:36.880Z,14.20
2022-09-07T18:17:05.072Z,11.43
2022-09-07T18:19:34.430Z,13.40
2022-09-07T18:22:03.817Z,13.47
2022-09-07T18:24:31.791Z,12.30
2022-09-07T18:26:59.574Z,13.50
2022-09-07T18:29:31.068Z,13.87
2022-09-07T18:32:01.168Z,12.43
2022-09-07T18:34:30.705Z,13.00
2022-09-07T18:37:00.216Z,11.70
2022-09-07T18:39:29.043Z,14.10
2022-09-07T18:41:57.329Z,14.43
2022-09-07T18:47:21.764Z,12.70
2022-09-07T18:49:51.274Z,12.30
2022-09-07T18:55:10.287Z,11.90
2022-09-07T18:57:38.849Z,12.90
2022-09-07T19:00:09.437Z,13.07
2022-09-07T19:02:37.344Z,14.00
2022-09-07T19:07:55.226Z,14.10
2022-09-07T19:10:23.037Z,13.90
2022-09-07T19:12:50.892Z,15.70
2022-09-07T19:15:20.358Z,14.53
2022-09-07T19:17:48.165Z,14.10
2022-09-07T19:20:15.987Z,14.97
2022-09-07T19:22:43.852Z,13.83
2022-09-07T19:25:13.047Z,14.27
2022-09-07T19:27:40.868Z,15.33
2022-09-07T19:30:10.073Z,16.33
2022-09-07T19:32:38.045Z,14.63
2022-09-07T19:35:06.393Z,14.97
2022-09-07T19:37:34.702Z,13.87
2022-09-07T19:40:02.938Z,15.27
2022-09-07T19:42:32.669Z,14.97
2022-09-07T19:45:00.833Z,15.07
2022-09-07T19:47:28.617Z,14.23
2022-09-07T19:49:56.400Z,14.33
2022-09-07T19:52:24.209Z,14.80
2022-09-07T19:54:51.982Z,14.80
2022-09-07T19:57:19.822Z,15.20
2022-09-07T19:59:48.929Z,15.20
2022-09-07T20:02:16.804Z,14.27
2022-09-07T20:04:44.593Z,15.80
2022-09-07T20:07:13.341Z,14.50
2022-09-07T20:09:41.157Z,15.10
2022-09-07T20:12:09.956Z,15.00
2022-09-07T20:14:38.043Z,15.40
2022-09-07T20:17:07.196Z,15.90
2022-09-07T20:19:35.005Z,14.07
2022-09-07T20:22:02.787Z,15.43
2022-09-07T20:24:31.288Z,14.23
2022-09-07T20:26:59.091Z,15.60
2022-09-07T20:29:28.592Z,14.07
2022-09-07T20:31:57.693Z,14.97
2022-09-07T20:34:27.348Z,14.27
2022-09-07T20:36:56.718Z,15.30
2022-09-07T20:39:24.560Z,14.10
2022-09-07T20:41:52.629Z,14.00
2022-09-07T20:44:20.641Z,15.07
2022-09-07T20:46:48.580Z,15.80
2022-09-07T20:49:16.929Z,14.30
2022-09-07T20:51:46.095Z,14.13
2022-09-07T20:54:13.907Z,14.57
2022-09-07T20:56:41.708Z,14.90
2022-09-07T20:59:09.705Z,13.90
2022-09-07T21:01:37.512Z,15.47
2022-09-07T21:04:06.178Z,13.53
2022-09-07T21:06:34.289Z,14.37
2022-09-07T21:09:03.487Z,13.60
2022-09-07T21:11:33.547Z,13.90
2022-09-07T21:14:02.925Z,13.20
2022-09-07T21:16:30.955Z,13.13
2022-09-07T21:19:00.849Z,13.50
2022-09-07T21:21:30.032Z,13.20
2022-09-07T21:24:00.149Z,13.70
2022-09-07T21:26:29.725Z,12.80
2022-09-07T21:28:58.951Z,12.87
2022-09-07T21:31:27.239Z,11.97
2022-09-07T21:33:56.849Z,14.30
2022-09-07T21:36:25.613Z,14.10
2022-09-07T21:38:54.410Z,12.67
2022-09-07T21:41:23.907Z,13.63
2022-09-07T21:43:56.425Z,13.93
2022-09-07T21:46:25.177Z,14.30
2022-09-07T21:48:53.160Z,13.83
2022-09-07T21:51:21.058Z,13.97
2022-09-07T21:53:53.594Z,14.40
2022-09-07T21:56:22.301Z,14.03
2022-09-07T21:58:54.127Z,14.10
2022-09-07T22:01:24.886Z,14.10
2022-09-07T22:03:56.238Z,18.10
2022-09-07T22:06:24.928Z,15.60
2022-09-07T22:08:53.400Z,13.67
2022-09-07T22:11:23.530Z,13.97
2022-09-07T22:13:55.480Z,13.17
2022-09-07T22:16:24.826Z,14.53
2022-09-07T22:18:53.306Z,13.67
2022-09-07T22:21:23.989Z,13.10
2022-09-07T22:23:53.633Z,10.23
2022-09-07T22:26:23.804Z,13.30
2022-09-07T22:28:51.968Z,13.30
2022-09-07T22:31:22.371Z,12.63
2022-09-07T22:33:52.715Z,13.87
2022-09-07T22:36:22.981Z,13.13
2022-09-07T22:38:53.916Z,13.13
2022-09-07T22:41:24.039Z,13.20
2022-09-07T22:43:51.890Z,13.30
2022-09-07T22:46:22.273Z,13.10
2022-09-07T22:48:51.721Z,13.33
2022-09-07T22:51:19.843Z,12.57
2022-09-07T22:53:47.764Z,13.87
2022-09-07T22:56:18.449Z,13.17
2022-09-07T22:58:46.818Z,13.57
2022-09-07T23:01:14.868Z,13.83
2022-09-07T23:03:44.137Z,13.30
2022-09-07T23:06:21.426Z,12.73
2022-09-07T23:08:49.410Z,14.37
2022-09-07T23:11:17.413Z,13.20
2022-09-07T23:13:45.301Z,14.00
2022-09-07T23:16:13.196Z,14.77
2022-09-07T23:18:41.522Z,14.57
2022-09-07T23:21:09.340Z,13.73
2022-09-07T23:23:38.631Z,14.20
2022-09-07T23:26:07.034Z,13.20
2022-09-07T23:28:35.426Z,14.97
2022-09-07T23:31:03.220Z,14.60
2022-09-07T23:33:31.570Z,13.67
2022-09-07T23:36:01.596Z,12.90
2022-09-07T23:38:29.920Z,13.57
2022-09-07T23:41:00.862Z,12.73
2022-09-07T23:43:30.087Z,14.17
2022-09-07T23:45:59.774Z,14.10
2022-09-07T23:48:27.784Z,14.13
2022-09-07T23:50:55.663Z,14.20
2022-09-07T23:53:23.711Z,13.90
2022-09-07T23:55:53.116Z,14.27
2022-09-07T23:58:23.073Z,14.43
